Time;durP1;ratioP1;P1;durP2;ratioP2;P2;SDS_P1;SDS_P2;PMS_P1;PMS_P2;Temp;Humidity;BMP_temperature;BMP_pressure;BME280_temperature;BME280_humidity;BME280_pressure;Samples;Min_cycle;Max_cycle;Signal;HPM_P1;HPM_P2
2023/09/26 00:00:41;;;;;;;9.52;7.57;;;;;;;13.56;100.00;102154.19;4992183;28;20038;-74
2023/09/26 00:03:07;;;;;;;10.55;7.60;;;;;;;13.42;100.00;102152.25;4985891;28;20030;-74
2023/09/26 00:05:33;;;;;;;6.38;5.75;;;;;;;13.44;100.00;102154.84;4990389;28;20050;-73
2023/09/26 00:08:03;;;;;;;10.80;7.32;;;;;;;13.38;100.00;102150.66;4992142;28;20038;-75
2023/09/26 00:10:29;;;;;;;12.00;7.40;;;;;;;13.37;100.00;102145.41;4991322;28;20034;-75
2023/09/26 00:12:54;;;;;;;12.07;8.85;;;;;;;13.35;100.00;102147.28;4990402;28;21027;-75
2023/09/26 00:15:20;;;;;;;8.32;7.35;;;;;;;13.34;100.00;102151.78;4985458;28;20041;-75
2023/09/26 00:17:45;;;;;;;9.68;7.32;;;;;;;13.38;100.00;102158.72;4980233;28;20146;-74
2023/09/26 00:20:23;;;;;;;11.43;8.18;;;;;;;13.27;100.00;102153.06;4984227;28;20038;-74
2023/09/26 00:22:49;;;;;;;7.65;5.95;;;;;;;13.20;100.00;102149.84;4991966;28;20145;-75
2023/09/26 00:25:15;;;;;;;7.95;5.88;;;;;;;13.18;100.00;102150.84;4980610;28;20150;-74
2023/09/26 00:27:40;;;;;;;11.48;7.15;;;;;;;13.19;100.00;102148.06;4985210;28;20038;-75
2023/09/26 00:30:08;;;;;;;7.45;6.53;;;;;;;13.23;100.00;102147.97;4987784;28;20030;-74
2023/09/26 00:32:34;;;;;;;10.73;7.40;;;;;;;13.21;100.00;102142.66;4977290;28;20535;-74
2023/09/26 00:35:01;;;;;;;33.40;8.15;;;;;;;13.14;100.00;102136.75;4987524;28;20073;-75
2023/09/26 00:37:26;;;;;;;11.23;6.30;;;;;;;13.08;100.00;102147.78;4986580;28;20057;-74
2023/09/26 00:39:53;;;;;;;8.73;5.55;;;;;;;13.05;100.00;102147.97;4993210;28;20494;-73
2023/09/26 00:42:18;;;;;;;9.60;5.72;;;;;;;13.08;100.00;102144.25;4990033;28;20113;-74
2023/09/26 00:44:44;;;;;;;12.70;6.75;;;;;;;13.13;100.00;102137.69;4973138;28;20041;-75
2023/09/26 00:47:10;;;;;;;8.00;5.45;;;;;;;13.12;100.00;102135.97;4974025;28;20037;-75
2023/09/26 00:49:37;;;;;;;9.20;6.00;;;;;;;13.12;100.00;102140.47;4989107;28;20038;-75
2023/09/26 00:52:03;;;;;;;12.95;5.78;;;;;;;13.14;100.00;102135.88;4985012;28;20034;-74
2023/09/26 00:54:29;;;;;;;12.45;5.72;;;;;;;13.07;100.00;102145.19;4973239;28;20049;-74
2023/09/26 00:56:56;;;;;;;5.15;4.55;;;;;;;12.96;100.00;102151.13;4971293;28;20038;-75
2023/09/26 00:59:21;;;;;;;6.47;4.78;;;;;;;12.87;100.00;102143.56;4991890;28;20070;-75
2023/09/26 01:01:49;;;;;;;5.65;4.07;;;;;;;12.87;100.00;102132.88;4990702;28;20068;-74
2023/09/26 01:04:15;;;;;;;9.02;5.38;;;;;;;12.92;100.00;102144.19;4968253;28;20034;-74
2023/09/26 01:06:41;;;;;;;7.70;5.13;;;;;;;12.98;100.00;102143.00;4990728;28;20042;-74
2023/09/26 01:09:09;;;;;;;13.38;6.07;;;;;;;12.98;100.00;102143.00;4990161;28;20092;-74
2023/09/26 01:11:36;;;;;;;9.98;5.00;;;;;;;12.95;100.00;102136.88;4986578;28;20046;-73
2023/09/26 01:14:01;;;;;;;7.30;5.68;;;;;;;12.96;100.00;102135.06;4983704;28;20035;-73
2023/09/26 01:16:27;;;;;;;7.60;4.85;;;;;;;12.87;100.00;102133.72;4986900;28;20038;-75
2023/09/26 01:18:53;;;;;;;5.60;4.50;;;;;;;12.79;100.00;102133.25;4990747;28;20101;-73
2023/09/26 01:21:18;;;;;;;10.27;5.95;;;;;;;12.85;100.00;102124.91;4989596;28;20061;-74
2023/09/26 01:23:55;;;;;;;8.93;6.55;;;;;;;12.81;100.00;102136.72;4982625;28;20054;-74
2023/09/26 01:26:20;;;;;;;8.63;6.68;;;;;;;12.78;100.00;102134.19;4989477;28;20054;-75
2023/09/26 01:28:45;;;;;;;10.18;7.35;;;;;;;12.84;100.00;102139.22;4970922;28;20045;-74
2023/09/26 01:31:11;;;;;;;12.13;6.95;;;;;;;12.87;100.00;102125.69;4988479;28;20701;-75
2023/09/26 01:33:36;;;;;;;9.48;6.25;;;;;;;12.88;100.00;102126.56;4981384;28;20034;-75
2023/09/26 01:36:02;;;;;;;11.13;7.18;;;;;;;12.82;100.00;102113.50;4986727;28;20058;-74
2023/09/26 01:38:27;;;;;;;13.70;7.38;;;;;;;12.82;100.00;102108.16;4990183;28;20141;-75
2023/09/26 01:40:53;;;;;;;14.13;6.70;;;;;;;12.79;100.00;102108.28;4987125;28;20034;-74
2023/09/26 01:43:19;;;;;;;13.02;7.65;;;;;;;12.79;100.00;102106.47;4987034;28;20038;-75
2023/09/26 01:45:44;;;;;;;12.32;6.57;;;;;;;12.75;100.00;102115.63;4981250;28;20047;-73
2023/09/26 01:48:12;;;;;;;9.45;5.60;;;;;;;12.74;100.00;102121.06;4991062;28;20035;-74
2023/09/26 01:50:39;;;;;;;8.20;6.38;;;;;;;12.75;100.00;102120.09;4992800;28;20969;-74
2023/09/26 01:53:04;;;;;;;7.18;5.38;;;;;;;12.66;100.00;102116.13;4982008;28;20125;-74
2023/09/26 01:55:30;;;;;;;8.32;5.68;;;;;;;12.66;100.00;102113.44;4988940;28;20093;-74
2023/09/26 01:57:56;;;;;;;9.90;5.80;;;;;;;12.70;100.00;102110.53;4974180;28;20776;-75
2023/09/26 02:00:22;;;;;;;10.77;5.43;;;;;;;12.64;100.00;102113.50;4971124;28;20038;-74
2023/09/26 02:02:50;;;;;;;7.18;5.40;;;;;;;12.60;100.00;102106.59;4987661;28;20034;-74
2023/09/26 02:05:19;;;;;;;6.60;5.50;;;;;;;12.58;100.00;102111.13;4975489;28;20050;-74
2023/09/26 02:07:48;;;;;;;16.13;7.28;;;;;;;12.54;100.00;102114.91;4984647;28;20062;-74
2023/09/26 02:10:15;;;;;;;7.72;5.70;;;;;;;12.52;100.00;102115.94;4983709;28;20037;-74
2023/09/26 02:12:46;;;;;;;9.02;5.55;;;;;;;12.48;100.00;102125.94;4983494;28;20050;-73
2023/09/26 02:15:12;;;;;;;8.48;6.07;;;;;;;12.55;100.00;102115.78;4990062;28;20047;-74
2023/09/26 02:17:41;;;;;;;8.00;6.30;;;;;;;12.59;100.00;102118.22;4963837;28;20070;-74
2023/09/26 02:20:15;;;;;;;8.50;6.38;;;;;;;12.56;100.00;102115.72;4990750;28;20034;-74
2023/09/26 02:22:51;;;;;;;7.53;6.25;;;;;;;12.54;100.00;102104.22;4987331;28;20039;-74
2023/09/26 02:25:21;;;;;;;8.07;6.05;;;;;;;12.56;100.00;102105.00;4944350;28;20043;-75
2023/09/26 02:27:48;;;;;;;9.27;7.90;;;;;;;12.49;100.00;102102.72;4989129;28;20089;-74
2023/09/26 02:30:23;;;;;;;11.85;8.35;;;;;;;12.60;100.00;102101.25;4965717;28;20047;-73
2023/09/26 02:32:49;;;;;;;11.95;8.45;;;;;;;12.56;100.00;102099.66;4985050;28;20106;-74
2023/09/26 02:35:15;;;;;;;13.63;10.27;;;;;;;12.62;100.00;102098.47;4983389;28;20042;-74
2023/09/26 02:37:42;;;;;;;15.98;10.68;;;;;;;12.66;100.00;102105.41;4981309;28;20094;-74
2023/09/26 02:40:10;;;;;;;15.43;9.88;;;;;;;12.69;100.00;102110.59;4991646;28;20890;-75
2023/09/26 02:42:37;;;;;;;15.25;9.65;;;;;;;12.68;100.00;102111.53;4973511;28;20595;-74
2023/09/26 02:45:04;;;;;;;13.75;10.98;;;;;;;12.60;100.00;102098.56;4987170;28;20039;-74
2023/09/26 02:47:29;;;;;;;22.20;12.38;;;;;;;12.65;100.00;102096.53;4988034;28;20034;-75
2023/09/26 02:49:55;;;;;;;21.35;13.07;;;;;;;12.70;100.00;102097.16;4992758;28;20625;-74
2023/09/26 02:52:22;;;;;;;29.33;13.45;;;;;;;12.67;100.00;102097.28;4973717;28;20034;-74
2023/09/26 02:54:47;;;;;;;14.18;10.50;;;;;;;12.60;100.00;102090.53;4972940;28;20152;-74
2023/09/26 02:57:13;;;;;;;13.68;8.57;;;;;;;12.58;100.00;102091.53;4969127;28;20122;-75
2023/09/26 02:59:38;;;;;;;13.25;9.27;;;;;;;12.55;100.00;102095.25;4973138;28;20031;-74
2023/09/26 03:02:05;;;;;;;23.80;11.48;;;;;;;12.54;100.00;102088.16;4990016;28;20149;-75
2023/09/26 03:04:30;;;;;;;21.55;13.02;;;;;;;12.55;100.00;102095.25;4992241;28;20038;-74
2023/09/26 03:06:56;;;;;;;18.40;12.23;;;;;;;12.58;100.00;102094.22;4991748;28;20042;-75
2023/09/26 03:09:21;;;;;;;15.32;12.00;;;;;;;12.55;100.00;102087.22;4967847;28;20030;-75
2023/09/26 03:11:47;;;;;;;18.23;13.98;;;;;;;12.60;100.00;102086.97;4974259;28;20093;-75
2023/09/26 03:14:12;;;;;;;14.30;11.43;;;;;;;12.48;100.00;102077.78;4992125;28;20038;-75
2023/09/26 03:16:38;;;;;;;15.48;11.93;;;;;;;12.44;100.00;102082.41;4972033;28;20134;-73
2023/09/26 03:19:06;;;;;;;17.20;11.40;;;;;;;12.41;100.00;102077.22;4973483;28;20050;-74
2023/09/26 03:21:31;;;;;;;16.80;11.27;;;;;;;12.39;100.00;102073.75;4992137;28;20035;-74
2023/09/26 03:23:57;;;;;;;16.95;11.70;;;;;;;12.38;100.00;102069.34;4972143;28;20042;-73
2023/09/26 03:26:22;;;;;;;17.92;14.25;;;;;;;12.40;100.00;102080.00;4986744;28;20034;-74
2023/09/26 03:28:48;;;;;;;18.40;14.23;;;;;;;12.44;100.00;102068.16;4971376;28;20035;-74
2023/09/26 03:31:13;;;;;;;20.65;16.52;;;;;;;12.45;100.00;102064.56;4989565;28;20043;-74
2023/09/26 03:33:39;;;;;;;18.25;13.82;;;;;;;12.36;100.00;102065.91;4991924;28;20054;-74
2023/09/26 03:36:05;;;;;;;20.45;13.93;;;;;;;12.36;100.00;102067.72;4967226;28;20676;-75
2023/09/26 03:38:31;;;;;;;22.38;14.68;;;;;;;12.31;100.00;102067.09;4966515;28;20035;-74
2023/09/26 03:41:00;;;;;;;16.02;12.15;;;;;;;12.30;100.00;102062.66;4979274;28;20035;-75
2023/09/26 03:43:27;;;;;;;15.55;11.30;;;;;;;12.24;100.00;102069.19;4970836;28;20054;-74
2023/09/26 03:46:04;;;;;;;19.63;13.38;;;;;;;12.26;100.00;102069.13;4973173;28;20037;-75
2023/09/26 03:48:30;;;;;;;17.58;12.75;;;;;;;12.29;100.00;102066.28;4964813;28;20039;-73
2023/09/26 03:51:06;;;;;;;17.55;13.68;;;;;;;12.27;100.00;102060.16;4967456;28;20090;-74
2023/09/26 03:53:31;;;;;;;22.55;13.05;;;;;;;12.29;100.00;102063.59;4968094;28;20039;-74
2023/09/26 03:55:57;;;;;;;17.33;14.02;;;;;;;12.37;100.00;102056.94;4969921;28;20035;-74
2023/09/26 03:58:22;;;;;;;19.85;13.05;;;;;;;12.37;100.00;102051.56;4967872;28;20936;-75
2023/09/26 04:00:48;;;;;;;15.15;13.13;;;;;;;12.30;100.00;102057.31;4966614;28;22366;-75
2023/09/26 04:03:14;;;;;;;16.08;12.27;;;;;;;12.34;100.00;102056.22;4963294;28;20046;-75
2023/09/26 04:05:46;;;;;;;16.70;12.57;;;;;;;12.31;100.00;102059.06;4963824;28;20035;-74
2023/09/26 04:08:14;;;;;;;14.90;12.63;;;;;;;12.43;100.00;102055.75;4970359;28;20091;-73
2023/09/26 04:10:39;;;;;;;16.75;14.95;;;;;;;12.43;100.00;102053.06;4970638;28;20035;-73
2023/09/26 04:13:05;;;;;;;19.63;14.57;;;;;;;12.47;100.00;102051.97;4973016;28;20054;-75
2023/09/26 04:15:30;;;;;;;19.27;12.68;;;;;;;12.52;100.00;102051.75;4967998;28;20182;-74
2023/09/26 04:17:56;;;;;;;19.63;15.65;;;;;;;12.53;100.00;102050.78;4972794;28;20038;-74
2023/09/26 04:20:22;;;;;;;19.75;15.32;;;;;;;12.56;100.00;102058.66;4970204;28;20795;-74
2023/09/26 04:22:48;;;;;;;18.80;14.88;;;;;;;12.56;100.00;102064.88;4971343;28;20125;-75
2023/09/26 04:25:14;;;;;;;18.70;14.77;;;;;;;12.50;100.00;102067.88;4971402;28;20474;-74
2023/09/26 04:27:40;;;;;;;18.67;15.18;;;;;;;12.44;100.00;102060.16;4969280;28;20050;-75
2023/09/26 04:30:07;;;;;;;18.50;14.20;;;;;;;12.41;100.00;102061.19;4971394;28;20035;-74
2023/09/26 04:32:32;;;;;;;25.95;19.25;;;;;;;12.47;100.00;102053.78;4959770;28;20067;-75
2023/09/26 04:34:58;;;;;;;24.15;18.10;;;;;;;12.50;100.00;102059.84;4971042;28;20912;-74
2023/09/26 04:37:23;;;;;;;21.58;16.15;;;;;;;12.47;100.00;102051.97;4979416;28;20042;-75
2023/09/26 04:39:49;;;;;;;23.83;17.42;;;;;;;12.51;100.00;102058.03;4975086;28;20109;-74
2023/09/26 04:42:14;;;;;;;21.55;17.08;;;;;;;12.46;100.00;102060.09;4989954;28;20065;-74
2023/09/26 04:44:40;;;;;;;21.65;16.25;;;;;;;12.44;100.00;102063.69;4987674;28;20038;-74
2023/09/26 04:47:06;;;;;;;24.48;17.30;;;;;;;12.41;100.00;102053.16;4990527;28;20038;-74
2023/09/26 04:49:34;;;;;;;28.23;19.33;;;;;;;12.44;100.00;102054.78;4984319;28;20038;-74
2023/09/26 04:51:59;;;;;;;22.35;16.92;;;;;;;12.41;100.00;102063.00;4986048;28;20046;-75
2023/09/26 04:54:24;;;;;;;19.80;16.55;;;;;;;12.47;100.00;102061.81;4987769;28;20031;-73
2023/09/26 04:56:50;;;;;;;28.73;18.30;;;;;;;12.17;100.00;102065.09;4987704;28;20878;-74
2023/09/26 04:59:15;;;;;;;28.90;21.83;;;;;;;12.35;100.00;102074.88;4982058;28;23055;-75
2023/09/26 05:01:42;;;;;;;31.42;19.75;;;;;;;12.50;100.00;102070.56;4976202;28;20083;-75
2023/09/26 05:04:07;;;;;;;29.05;20.88;;;;;;;12.61;100.00;102061.97;4979471;28;20061;-76
2023/09/26 05:06:33;;;;;;;29.02;19.77;;;;;;;12.60;100.00;102061.09;4991251;28;20049;-75
2023/09/26 05:08:58;;;;;;;29.35;17.40;;;;;;;12.55;100.00;102059.59;4984909;28;20034;-74
2023/09/26 05:11:26;;;;;;;18.83;15.02;;;;;;;12.59;100.00;102062.03;4967487;28;20058;-74
2023/09/26 05:13:51;;;;;;;25.52;16.42;;;;;;;12.65;100.00;102048.34;4987780;28;20961;-74
2023/09/26 05:16:17;;;;;;;23.75;16.02;;;;;;;12.65;100.00;102042.09;4982420;28;20038;-75
2023/09/26 05:18:42;;;;;;;23.60;15.95;;;;;;;12.72;100.00;102039.97;4987672;28;20035;-76
2023/09/26 05:21:08;;;;;;;29.48;18.75;;;;;;;12.67;100.00;102040.22;4988717;28;20046;-74
2023/09/26 05:23:35;;;;;;;23.02;15.48;;;;;;;12.78;100.00;102043.19;4990044;28;20035;-75
2023/09/26 05:26:08;;;;;;;21.90;16.50;;;;;;;12.83;100.00;102046.47;4987070;28;20061;-75
2023/09/26 05:28:34;;;;;;;25.58;17.23;;;;;;;12.89;100.00;102047.97;4972686;28;21145;-75
2023/09/26 05:31:00;;;;;;;28.75;17.67;;;;;;;12.91;100.00;102048.75;4989853;28;20121;-74
2023/09/26 05:33:25;;;;;;;25.52;15.90;;;;;;;12.92;100.00;102054.03;4975223;28;20057;-74
2023/09/26 05:35:53;;;;;;;21.90;15.57;;;;;;;12.87;100.00;102044.50;4988630;28;20038;-74
2023/09/26 05:38:20;;;;;;;22.83;15.90;;;;;;;12.86;100.00;102046.34;4987365;28;20577;-75
2023/09/26 05:40:46;;;;;;;25.13;17.27;;;;;;;12.91;100.00;102044.28;4984768;28;20073;-75
2023/09/26 05:43:11;;;;;;;25.55;16.90;;;;;;;12.88;100.00;102040.88;4981778;28;20138;-75
2023/09/26 05:45:37;;;;;;;21.70;15.75;;;;;;;12.83;100.00;102040.28;4985644;28;20047;-75
2023/09/26 05:48:04;;;;;;;23.77;16.95;;;;;;;12.85;100.00;102041.03;4987354;28;20049;-75
2023/09/26 05:50:30;;;;;;;22.52;17.75;;;;;;;12.87;100.00;102039.16;4963716;28;20601;-74
2023/09/26 05:52:56;;;;;;;21.67;17.08;;;;;;;12.94;100.00;102040.56;4989593;28;20053;-74
2023/09/26 05:55:21;;;;;;;21.25;15.60;;;;;;;13.02;100.00;102030.31;4986327;28;20027;-74
2023/09/26 05:57:48;;;;;;;23.35;16.55;;;;;;;13.14;100.00;102037.66;4979120;28;20034;-74
2023/09/26 06:00:14;;;;;;;24.30;17.92;;;;;;;13.21;100.00;102043.56;4983156;28;20065;-75
2023/09/26 06:02:40;;;;;;;23.15;17.38;;;;;;;13.17;100.00;102032.13;4969744;28;20042;-74
2023/09/26 06:05:05;;;;;;;30.75;19.73;;;;;;;13.22;100.00;102029.25;4988164;28;20074;-74
2023/09/26 06:07:31;;;;;;;25.00;16.98;;;;;;;13.27;100.00;102035.19;4987411;28;20041;-75
2023/09/26 06:09:57;;;;;;;26.63;17.90;;;;;;;13.34;100.00;102033.91;4988227;28;20878;-73
2023/09/26 06:12:23;;;;;;;24.83;18.00;;;;;;;13.38;100.00;102045.31;4985857;28;20120;-74
2023/09/26 06:14:49;;;;;;;24.17;17.80;;;;;;;13.38;100.00;102046.19;4988074;28;20035;-74
2023/09/26 06:17:14;;;;;;;24.55;17.63;;;;;;;13.47;100.00;102047.50;4974799;28;20774;-74
2023/09/26 06:19:45;;;;;;;26.63;17.45;;;;;;;13.54;100.00;102046.19;4988107;28;20042;-73
2023/09/26 06:22:10;;;;;;;24.48;18.23;;;;;;;13.59;100.00;102036.06;4985601;28;20034;-74
2023/09/26 06:24:36;;;;;;;23.42;17.33;;;;;;;13.46;100.00;102046.63;4984814;28;20818;-74
2023/09/26 06:27:01;;;;;;;26.88;18.90;;;;;;;13.52;100.00;102048.09;4987637;28;20042;-76
2023/09/26 06:29:26;;;;;;;25.23;19.63;;;;;;;13.65;100.00;102050.94;4973651;28;20126;-73
2023/09/26 06:31:52;;;;;;;23.75;16.95;;;;;;;13.81;100.00;102057.16;4990654;28;20039;-74
2023/09/26 06:34:17;;;;;;;26.08;18.60;;;;;;;13.91;100.00;102060.19;4991046;28;20666;-75
2023/09/26 06:36:45;;;;;;;22.67;17.35;;;;;;;13.99;100.00;102065.94;4989038;28;20141;-74
2023/09/26 06:39:11;;;;;;;26.55;17.42;;;;;;;14.07;100.00;102052.97;4989093;28;20037;-75
2023/09/26 06:41:37;;;;;;;24.85;17.52;;;;;;;14.18;100.00;102052.31;4979050;28;20047;-74
2023/09/26 06:44:03;;;;;;;23.10;16.90;;;;;;;14.24;100.00;102060.00;4983831;28;20041;-75
2023/09/26 06:46:29;;;;;;;26.88;16.35;;;;;;;14.29;100.00;102054.38;4971874;28;20034;-74
2023/09/26 06:48:55;;;;;;;24.50;16.73;;;;;;;14.23;100.00;102053.78;4954708;28;20042;-74
2023/09/26 06:51:20;;;;;;;22.88;15.73;;;;;;;14.23;100.00;102048.41;4984664;28;20038;-75
2023/09/26 06:53:47;;;;;;;23.98;17.40;;;;;;;14.29;100.00;102047.19;4982246;28;20055;-74
2023/09/26 06:56:13;;;;;;;26.83;18.52;;;;;;;14.35;100.00;102054.84;4987799;28;20038;-74
2023/09/26 06:58:39;;;;;;;19.45;15.02;;;;;;;14.40;100.00;102051.91;4988900;28;20047;-74
2023/09/26 07:01:15;;;;;;;20.77;16.40;;;;;;;14.41;100.00;102045.59;4990380;28;20034;-74
2023/09/26 07:03:41;;;;;;;21.58;14.65;;;;;;;14.52;100.00;102044.97;4985719;28;20110;-74
2023/09/26 07:06:11;;;;;;;24.10;15.45;;;;;;;14.54;100.00;102046.59;4981540;28;20039;-73
2023/09/26 07:08:41;;;;;;;20.30;13.80;;;;;;;14.55;100.00;102037.59;4980294;28;20050;-75
2023/09/26 07:11:08;;;;;;;18.98;13.48;;;;;;;14.55;100.00;102039.41;4986007;28;20035;-74
2023/09/26 07:13:37;;;;;;;21.45;13.80;;;;;;;14.52;100.00;102042.31;4989223;28;20043;-74
2023/09/26 07:16:04;;;;;;;19.98;14.13;;;;;;;14.59;100.00;102031.06;4989988;28;20074;-74
2023/09/26 07:18:33;;;;;;;21.08;14.50;;;;;;;14.75;100.00;102028.31;4992047;28;20038;-74
2023/09/26 07:21:04;;;;;;;19.17;13.80;;;;;;;14.85;100.00;102034.84;4987154;28;20045;-75
2023/09/26 07:23:30;;;;;;;23.88;14.52;;;;;;;14.70;100.00;102023.22;4972839;28;20106;-74
2023/09/26 07:26:05;;;;;;;18.08;12.98;;;;;;;14.81;100.00;102025.25;4990813;28;20046;-74
2023/09/26 07:28:31;;;;;;;16.92;13.10;;;;;;;14.87;100.00;102015.97;4987946;28;20038;-74
2023/09/26 07:30:56;;;;;;;17.80;12.80;;;;;;;14.78;100.00;102020.06;4987427;28;20039;-74
2023/09/26 07:33:22;;;;;;;19.08;14.52;;;;;;;15.15;100.00;102023.13;4990414;28;20046;-75
2023/09/26 07:35:52;;;;;;;22.33;12.90;;;;;;;15.11;100.00;102024.28;4971540;28;20077;-74
2023/09/26 07:38:18;;;;;;;18.55;13.18;;;;;;;15.18;100.00;102021.09;4979167;28;20031;-74
2023/09/26 07:40:43;;;;;;;20.75;13.35;;;;;;;15.07;100.00;102015.56;4985660;28;20137;-75
2023/09/26 07:43:08;;;;;;;21.20;13.18;;;;;;;15.11;100.00;102026.97;4990457;28;20129;-74
2023/09/26 07:45:38;;;;;;;19.30;13.55;;;;;;;15.59;100.00;102030.16;4967530;28;20042;-74
2023/09/26 07:48:04;;;;;;;20.13;12.82;;;;;;;15.65;100.00;102027.94;4966085;28;20038;-73
2023/09/26 07:50:29;;;;;;;18.77;13.02;;;;;;;16.15;100.00;102025.53;4985179;28;20045;-74
2023/09/26 07:52:55;;;;;;;17.45;11.75;;;;;;;16.44;100.00;102023.53;4985461;28;20049;-75
2023/09/26 07:55:20;;;;;;;15.90;12.55;;;;;;;16.85;100.00;102020.66;4987110;28;20735;-74
2023/09/26 07:57:46;;;;;;;15.68;10.80;;;;;;;16.82;100.00;102019.06;4976636;28;20051;-75
2023/09/26 08:00:13;;;;;;;17.58;12.27;;;;;;;16.70;100.00;102029.78;4987915;28;20093;-75
2023/09/26 08:02:38;;;;;;;18.95;11.70;;;;;;;16.97;100.00;102022.50;4977246;28;20088;-75
2023/09/26 08:05:04;;;;;;;14.63;11.23;;;;;;;17.21;100.00;102019.00;4973143;28;20045;-74
2023/09/26 08:07:30;;;;;;;16.77;10.93;;;;;;;17.54;100.00;102019.22;4984697;28;20034;-73
2023/09/26 08:10:00;;;;;;;15.68;10.52;;;;;;;17.71;100.00;102019.81;4984077;28;20034;-74
2023/09/26 08:12:29;;;;;;;14.85;11.88;;;;;;;17.84;100.00;102020.66;4984098;28;20085;-74
2023/09/26 08:14:56;;;;;;;14.00;10.63;;;;;;;17.97;100.00;102009.78;4985422;28;20035;-75
2023/09/26 08:17:21;;;;;;;21.23;10.27;;;;;;;17.79;100.00;102009.34;4986497;28;20038;-74
2023/09/26 08:19:47;;;;;;;20.25;10.77;;;;;;;17.90;100.00;102011.22;4985095;28;20034;-77
2023/09/26 08:22:12;;;;;;;15.35;11.18;;;;;;;18.13;100.00;102012.19;4991005;28;20038;-76
2023/09/26 08:24:39;;;;;;;15.55;10.40;;;;;;;18.09;100.00;102007.00;4982417;28;20042;-75
2023/09/26 08:27:05;;;;;;;17.35;9.77;;;;;;;17.49;100.00;102009.75;4991024;28;20961;-74
2023/09/26 08:29:30;;;;;;;14.23;10.18;;;;;;;17.83;100.00;102014.41;4988911;28;20046;-76
2023/09/26 08:31:57;;;;;;;15.25;10.13;;;;;;;18.00;100.00;102007.72;4990527;28;20078;-74
2023/09/26 08:34:23;;;;;;;13.63;9.93;;;;;;;17.77;100.00;102013.97;4990390;28;20032;-75
2023/09/26 08:36:49;;;;;;;18.08;11.48;;;;;;;17.68;100.00;102012.81;4984106;28;20061;-74
2023/09/26 08:39:14;;;;;;;14.13;9.82;;;;;;;17.64;100.00;101999.66;4995460;28;20147;-74
2023/09/26 08:41:43;;;;;;;12.57;9.82;;;;;;;17.83;100.00;102006.28;4981625;28;20038;-74
2023/09/26 08:44:09;;;;;;;15.40;10.07;;;;;;;17.89;100.00;102002.28;4987888;28;20118;-76
2023/09/26 08:46:36;;;;;;;15.15;9.77;;;;;;;18.09;100.00;102001.63;4986805;28;20089;-74
2023/09/26 08:49:04;;;;;;;18.75;11.30;;;;;;;18.48;100.00;101990.56;4987397;28;20042;-75
2023/09/26 08:51:29;;;;;;;14.25;9.10;;;;;;;18.09;100.00;101989.97;4986475;28;20034;-74
2023/09/26 08:53:55;;;;;;;12.20;9.57;;;;;;;18.11;100.00;101983.44;4979914;28;20030;-76
2023/09/26 08:56:20;;;;;;;12.65;8.73;;;;;;;17.81;100.00;101977.69;4989629;28;20034;-74
2023/09/26 08:58:49;;;;;;;12.63;9.23;;;;;;;18.02;100.00;101972.50;4987154;28;20039;-74
2023/09/26 09:01:17;;;;;;;12.82;9.18;;;;;;;18.34;100.00;101972.72;4984204;28;21364;-74
2023/09/26 09:03:42;;;;;;;15.65;9.10;;;;;;;18.29;100.00;101964.97;4980692;28;20038;-75
2023/09/26 09:06:08;;;;;;;18.02;9.85;;;;;;;18.34;100.00;101964.63;4959563;28;20038;-74
2023/09/26 09:08:34;;;;;;;13.68;9.45;;;;;;;18.33;100.00;101965.59;4984350;28;20042;-75
2023/09/26 09:10:59;;;;;;;11.75;9.73;;;;;;;18.92;100.00;101970.81;4985608;28;20038;-74
2023/09/26 09:13:32;;;;;;;12.43;9.52;;;;;;;18.63;100.00;101973.97;4988065;28;20046;-75
2023/09/26 09:16:18;;;;;;;15.23;10.27;;;;;;;18.50;100.00;101972.38;4979588;28;20042;-73
2023/09/26 09:18:51;;;;;;;13.60;10.30;;;;;;;18.52;100.00;101968.53;4989092;28;20088;-75
2023/09/26 09:21:20;;;;;;;12.57;9.23;;;;;;;18.69;100.00;101969.97;4984545;28;20101;-75
2023/09/26 09:23:46;;;;;;;14.10;9.25;;;;;;;18.51;100.00;101966.84;4966958;28;20043;-75
2023/09/26 09:26:12;;;;;;;14.27;10.75;;;;;;;19.05;100.00;101962.56;4982572;28;20039;-76
2023/09/26 09:28:38;;;;;;;14.93;10.63;;;;;;;18.71;100.00;101959.03;4969199;28;20646;-75
2023/09/26 09:31:03;;;;;;;15.65;10.55;;;;;;;19.00;100.00;101960.25;4984766;28;20109;-75
2023/09/26 09:33:31;;;;;;;15.05;10.30;;;;;;;19.33;100.00;101956.63;4982709;28;20849;-75
2023/09/26 09:35:56;;;;;;;18.13;10.10;;;;;;;19.93;100.00;101954.34;4981104;28;21048;-75
2023/09/26 09:38:22;;;;;;;12.05;10.40;;;;;;;20.34;100.00;101958.06;4989083;28;20181;-74
2023/09/26 09:40:47;;;;;;;16.75;10.20;;;;;;;20.38;100.00;101956.75;4983355;28;20129;-76
2023/09/26 09:43:13;;;;;;;15.75;10.00;;;;;;;20.47;100.00;101964.13;4986472;28;20037;-75
2023/09/26 09:45:41;;;;;;;20.95;10.90;;;;;;;20.08;100.00;101954.88;4988738;28;20046;-75
2023/09/26 09:48:09;;;;;;;14.25;9.60;;;;;;;19.86;100.00;101948.59;4988724;28;20834;-75
2023/09/26 09:50:38;;;;;;;15.15;10.27;;;;;;;20.16;100.00;101947.81;4987524;28;20042;-75
2023/09/26 09:53:04;;;;;;;18.33;10.95;;;;;;;20.52;100.00;101955.59;4986408;28;20053;-75
2023/09/26 09:55:38;;;;;;;14.18;10.23;;;;;;;20.83;100.00;101949.16;4983469;28;20045;-74
2023/09/26 09:58:08;;;;;;;12.75;9.27;;;;;;;20.65;99.66;101945.41;4983935;28;20034;-75
2023/09/26 10:00:36;;;;;;;10.35;8.15;;;;;;;20.91;95.28;101933.09;4983126;28;20856;-76
2023/09/26 10:03:04;;;;;;;11.77;8.40;;;;;;;20.72;93.57;101929.44;4985056;28;20606;-75
2023/09/26 10:05:31;;;;;;;16.73;9.43;;;;;;;20.20;92.21;101928.59;4989102;28;20038;-75
2023/09/26 10:07:58;;;;;;;15.43;9.55;;;;;;;20.59;93.55;101935.13;4986093;28;20099;-75
2023/09/26 10:10:24;;;;;;;13.02;8.32;;;;;;;20.93;93.91;101938.38;4990040;28;20034;-74
2023/09/26 10:12:51;;;;;;;11.85;8.73;;;;;;;20.98;94.04;101946.09;4983000;28;20070;-75
2023/09/26 10:15:17;;;;;;;16.58;9.10;;;;;;;21.14;95.56;101932.88;4989813;28;20125;-75
2023/09/26 10:17:49;;;;;;;13.70;8.80;;;;;;;21.31;93.56;101934.06;4989632;28;20042;-76
2023/09/26 10:20:16;;;;;;;12.45;8.93;;;;;;;21.54;91.99;101918.41;4988451;28;20035;-76
2023/09/26 10:22:44;;;;;;;17.10;9.18;;;;;;;20.99;91.10;101931.56;4969144;28;20094;-74
2023/09/26 10:25:18;;;;;;;13.10;8.90;;;;;;;21.19;91.91;101930.59;4988072;28;20042;-74
2023/09/26 10:27:47;;;;;;;19.85;10.43;;;;;;;21.24;90.05;101913.91;4974730;28;20153;-74
2023/09/26 10:30:15;;;;;;;13.93;8.45;;;;;;;21.26;90.81;101917.31;4982674;28;20050;-74
2023/09/26 10:32:42;;;;;;;12.20;8.75;;;;;;;21.53;89.56;101911.22;4987579;28;20046;-74
2023/09/26 10:35:28;;;;;;;15.45;11.13;;;;;;;21.33;87.78;101916.63;4982912;28;20126;-74
2023/09/26 10:38:00;;;;;;;13.82;8.20;;;;;;;21.90;88.56;101908.66;4982481;28;20139;-74
2023/09/26 10:40:26;;;;;;;18.80;10.57;;;;;;;22.01;88.30;101908.50;4983420;28;20114;-74
2023/09/26 10:42:52;;;;;;;17.58;10.02;;;;;;;21.98;89.73;101917.78;4986514;28;20408;-74
2023/09/26 10:45:18;;;;;;;14.68;9.95;;;;;;;22.10;88.22;101920.34;4969937;28;20034;-74
2023/09/26 10:47:44;;;;;;;19.67;10.65;;;;;;;22.06;84.93;101913.50;4976633;28;20042;-75
2023/09/26 10:50:13;;;;;;;18.05;10.98;;;;;;;22.13;84.40;101918.22;4987125;28;20129;-74
2023/09/26 10:52:49;;;;;;;20.98;11.93;;;;;;;21.99;84.70;101926.81;4984624;28;20038;-74
2023/09/26 10:55:21;;;;;;;15.00;10.57;;;;;;;22.43;86.96;101925.28;4983619;28;20038;-74
2023/09/26 10:57:49;;;;;;;15.95;10.45;;;;;;;22.28;86.09;101909.59;4986880;28;20038;-73
2023/09/26 11:00:15;;;;;;;16.85;9.98;;;;;;;22.58;86.55;101920.22;4968169;28;20162;-74
2023/09/26 11:02:42;;;;;;;16.83;9.05;;;;;;;22.67;80.48;101910.31;4986528;28;20087;-75
2023/09/26 11:05:09;;;;;;;13.52;7.90;;;;;;;22.79;80.95;101906.38;4993137;28;20043;-73